sensor_id;sensor_type;location;lat;lon;timestamp;pressure;altitude;pressure_sealevel;temperature;humidity
61524;BME280;47393;38.758;-9.164;2022-08-21T00:01:46;100842.97;;;18.94;58.11
61524;BME280;47393;38.758;-9.164;2022-08-21T00:03:47;100832.31;;;18.85;58.10
61524;BME280;47393;38.758;-9.164;2022-08-21T00:05:49;100849.31;;;18.84;58.24
61524;BME280;47393;38.758;-9.164;2022-08-21T00:07:51;100848.31;;;18.77;58.74
61524;BME280;47393;38.758;-9.164;2022-08-21T00:09:55;100843.31;;;18.74;58.80
61524;BME280;47393;38.758;-9.164;2022-08-21T00:11:56;100830.16;;;18.64;59.05
61524;BME280;47393;38.758;-9.164;2022-08-21T00:13:56;100835.97;;;18.76;58.90
61524;BME280;47393;38.758;-9.164;2022-08-21T00:16:01;100845.31;;;18.97;58.32
61524;BME280;47393;38.758;-9.164;2022-08-21T00:18:03;100833.16;;;18.86;58.73
61524;BME280;47393;38.758;-9.164;2022-08-21T00:20:06;100838.00;;;18.91;58.86
61524;BME280;47393;38.758;-9.164;2022-08-21T00:22:08;100819.50;;;18.89;58.77
61524;BME280;47393;38.758;-9.164;2022-08-21T00:24:09;100837.31;;;18.72;59.37
61524;BME280;47393;38.758;-9.164;2022-08-21T00:26:10;100838.47;;;18.70;59.76
61524;BME280;47393;38.758;-9.164;2022-08-21T00:28:12;100832.66;;;18.58;60.48
61524;BME280;47393;38.758;-9.164;2022-08-21T00:30:16;100833.81;;;18.63;59.98
61524;BME280;47393;38.758;-9.164;2022-08-21T00:32:25;100799.66;;;18.42;58.84
61524;BME280;47393;38.758;-9.164;2022-08-21T00:34:26;100826.00;;;18.62;59.18
61524;BME280;47393;38.758;-9.164;2022-08-21T00:36:28;100811.00;;;18.53;58.50
61524;BME280;47393;38.758;-9.164;2022-08-21T00:38:29;100815.50;;;18.52;58.40
61524;BME280;47393;38.758;-9.164;2022-08-21T00:40:42;100818.16;;;18.44;57.99
61524;BME280;47393;38.758;-9.164;2022-08-21T00:42:43;100825.16;;;18.53;57.91
61524;BME280;47393;38.758;-9.164;2022-08-21T00:44:46;100813.00;;;18.50;57.59
61524;BME280;47393;38.758;-9.164;2022-08-21T00:46:51;100797.16;;;18.41;57.66
61524;BME280;47393;38.758;-9.164;2022-08-21T00:48:52;100813.34;;;18.47;57.75
61524;BME280;47393;38.758;-9.164;2022-08-21T00:50:58;100802.34;;;18.34;57.76
61524;BME280;47393;38.758;-9.164;2022-08-21T00:53:02;100807.50;;;18.36;57.78
61524;BME280;47393;38.758;-9.164;2022-08-21T00:55:08;100805.66;;;18.36;57.66
61524;BME280;47393;38.758;-9.164;2022-08-21T00:57:19;100802.84;;;18.38;57.65
61524;BME280;47393;38.758;-9.164;2022-08-21T00:59:21;100811.31;;;18.49;57.41
61524;BME280;47393;38.758;-9.164;2022-08-21T01:01:22;100800.53;;;18.43;57.25
61524;BME280;47393;38.758;-9.164;2022-08-21T01:03:24;100807.84;;;18.49;57.55
61524;BME280;47393;38.758;-9.164;2022-08-21T01:05:32;100810.34;;;18.50;57.18
61524;BME280;47393;38.758;-9.164;2022-08-21T01:07:33;100799.19;;;18.39;57.53
61524;BME280;47393;38.758;-9.164;2022-08-21T01:09:35;100790.34;;;18.30;57.81
61524;BME280;47393;38.758;-9.164;2022-08-21T01:11:36;100776.03;;;18.14;57.79
61524;BME280;47393;38.758;-9.164;2022-08-21T01:13:37;100785.84;;;18.22;58.09
61524;BME280;47393;38.758;-9.164;2022-08-21T01:15:42;100803.84;;;18.45;57.50
61524;BME280;47393;38.758;-9.164;2022-08-21T01:17:44;100799.53;;;18.36;57.92
61524;BME280;47393;38.758;-9.164;2022-08-21T01:19:44;100804.00;;;18.35;57.92
61524;BME280;47393;38.758;-9.164;2022-08-21T01:21:46;100795.84;;;18.20;58.56
61524;BME280;47393;38.758;-9.164;2022-08-21T01:23:49;100791.97;;;18.06;58.90
61524;BME280;47393;38.758;-9.164;2022-08-21T01:25:51;100780.69;;;18.12;58.92
61524;BME280;47393;38.758;-9.164;2022-08-21T01:27:52;100791.16;;;18.22;59.52
61524;BME280;47393;38.758;-9.164;2022-08-21T01:30:10;100790.84;;;18.25;59.35
61524;BME280;47393;38.758;-9.164;2022-08-21T01:32:14;100796.00;;;18.19;59.68
61524;BME280;47393;38.758;-9.164;2022-08-21T01:34:16;100792.34;;;18.20;59.30
61524;BME280;47393;38.758;-9.164;2022-08-21T01:36:17;100791.84;;;18.24;59.23
61524;BME280;47393;38.758;-9.164;2022-08-21T01:38:17;100794.50;;;18.24;59.25
61524;BME280;47393;38.758;-9.164;2022-08-21T01:40:24;100782.84;;;18.17;59.77
61524;BME280;47393;38.758;-9.164;2022-08-21T01:42:25;100797.50;;;18.21;60.02
61524;BME280;47393;38.758;-9.164;2022-08-21T01:44:27;100794.63;;;18.06;60.85
61524;BME280;47393;38.758;-9.164;2022-08-21T01:46:27;100760.78;;;17.74;61.26
61524;BME280;47393;38.758;-9.164;2022-08-21T01:48:31;100790.66;;;18.10;61.20
61524;BME280;47393;38.758;-9.164;2022-08-21T01:50:34;100773.50;;;17.96;61.69
61524;BME280;47393;38.758;-9.164;2022-08-21T01:52:35;100783.41;;;17.86;62.40
61524;BME280;47393;38.758;-9.164;2022-08-21T01:54:39;100773.28;;;17.81;62.51
61524;BME280;47393;38.758;-9.164;2022-08-21T01:56:51;100783.63;;;17.93;62.37
61524;BME280;47393;38.758;-9.164;2022-08-21T01:58:52;100779.47;;;17.90;62.45
61524;BME280;47393;38.758;-9.164;2022-08-21T02:00:53;100788.41;;;17.89;62.64
61524;BME280;47393;38.758;-9.164;2022-08-21T02:02:54;100795.78;;;17.95;62.93
61524;BME280;47393;38.758;-9.164;2022-08-21T02:04:55;100803.09;;;17.93;63.10
61524;BME280;47393;38.758;-9.164;2022-08-21T02:06:56;100793.38;;;17.76;63.82
61524;BME280;47393;38.758;-9.164;2022-08-21T02:08:57;100795.84;;;17.69;64.59
61524;BME280;47393;38.758;-9.164;2022-08-21T02:10:58;100799.59;;;17.50;65.05
61524;BME280;47393;38.758;-9.164;2022-08-21T02:12:59;100793.63;;;17.56;65.61
61524;BME280;47393;38.758;-9.164;2022-08-21T02:15:00;100798.00;;;17.66;65.75
61524;BME280;47393;38.758;-9.164;2022-08-21T02:17:04;100789.66;;;17.60;65.67
61524;BME280;47393;38.758;-9.164;2022-08-21T02:19:05;100810.81;;;17.70;65.57
61524;BME280;47393;38.758;-9.164;2022-08-21T02:21:06;100808.28;;;17.60;66.14
61524;BME280;47393;38.758;-9.164;2022-08-21T02:23:10;100809.75;;;17.55;66.73
61524;BME280;47393;38.758;-9.164;2022-08-21T02:25:11;100792.25;;;17.44;67.16
61524;BME280;47393;38.758;-9.164;2022-08-21T02:27:12;100801.28;;;17.51;67.18
61524;BME280;47393;38.758;-9.164;2022-08-21T02:29:13;100797.91;;;17.49;67.12
61524;BME280;47393;38.758;-9.164;2022-08-21T02:31:14;100812.09;;;17.58;67.37
61524;BME280;47393;38.758;-9.164;2022-08-21T02:33:15;100812.72;;;17.52;67.90
61524;BME280;47393;38.758;-9.164;2022-08-21T02:35:16;100793.94;;;17.19;68.52
61524;BME280;47393;38.758;-9.164;2022-08-21T02:37:16;100791.84;;;17.22;68.55
61524;BME280;47393;38.758;-9.164;2022-08-21T02:39:17;100793.84;;;17.28;68.98
61524;BME280;47393;38.758;-9.164;2022-08-21T02:41:20;100810.19;;;17.42;69.21
61524;BME280;47393;38.758;-9.164;2022-08-21T02:43:23;100801.00;;;17.28;69.51
61524;BME280;47393;38.758;-9.164;2022-08-21T02:45:24;100815.50;;;17.42;69.72
61524;BME280;47393;38.758;-9.164;2022-08-21T02:47:25;100793.03;;;17.28;70.47
61524;BME280;47393;38.758;-9.164;2022-08-21T02:49:26;100810.78;;;17.27;70.96
61524;BME280;47393;38.758;-9.164;2022-08-21T02:51:27;100800.78;;;17.21;71.50
61524;BME280;47393;38.758;-9.164;2022-08-21T02:53:28;100792.25;;;17.09;72.32
61524;BME280;47393;38.758;-9.164;2022-08-21T02:55:31;100803.56;;;17.11;72.90
61524;BME280;47393;38.758;-9.164;2022-08-21T02:57:32;100803.66;;;17.02;73.62
61524;BME280;47393;38.758;-9.164;2022-08-21T02:59:33;100809.66;;;17.04;74.71
61524;BME280;47393;38.758;-9.164;2022-08-21T03:01:34;100809.28;;;16.99;75.79
61524;BME280;47393;38.758;-9.164;2022-08-21T03:03:39;100806.72;;;16.89;76.54
61524;BME280;47393;38.758;-9.164;2022-08-21T03:05:44;100806.78;;;16.79;77.90
61524;BME280;47393;38.758;-9.164;2022-08-21T03:07:46;100821.75;;;16.80;79.19
61524;BME280;47393;38.758;-9.164;2022-08-21T03:09:47;100801.03;;;16.66;80.25
61524;BME280;47393;38.758;-9.164;2022-08-21T03:11:48;100797.41;;;16.67;80.64
61524;BME280;47393;38.758;-9.164;2022-08-21T03:13:49;100787.03;;;16.55;81.10
61524;BME280;47393;38.758;-9.164;2022-08-21T03:15:50;100811.50;;;16.67;81.56
61524;BME280;47393;38.758;-9.164;2022-08-21T03:17:51;100802.50;;;16.60;82.08
61524;BME280;47393;38.758;-9.164;2022-08-21T03:19:56;100811.66;;;16.66;82.12
61524;BME280;47393;38.758;-9.164;2022-08-21T03:21:56;100781.94;;;16.44;82.64
61524;BME280;47393;38.758;-9.164;2022-08-21T03:23:57;100802.13;;;16.55;82.86
61524;BME280;47393;38.758;-9.164;2022-08-21T03:25:58;100825.72;;;16.58;83.11
61524;BME280;47393;38.758;-9.164;2022-08-21T03:28:00;100790.06;;;16.42;83.41
61524;BME280;47393;38.758;-9.164;2022-08-21T03:30:03;100822.38;;;16.56;83.37
61524;BME280;47393;38.758;-9.164;2022-08-21T03:32:04;100810.22;;;16.53;83.32
61524;BME280;47393;38.758;-9.164;2022-08-21T03:34:05;100815.53;;;16.53;83.36
61524;BME280;47393;38.758;-9.164;2022-08-21T03:36:07;100820.84;;;16.53;83.70
61524;BME280;47393;38.758;-9.164;2022-08-21T03:38:08;100820.72;;;16.55;83.91
61524;BME280;47393;38.758;-9.164;2022-08-21T03:40:10;100811.00;;;16.64;83.16
61524;BME280;47393;38.758;-9.164;2022-08-21T03:42:11;100804.63;;;16.56;83.40
61524;BME280;47393;38.758;-9.164;2022-08-21T03:44:12;100781.34;;;16.50;83.04
61524;BME280;47393;38.758;-9.164;2022-08-21T03:46:13;100772.84;;;16.47;82.74
61524;BME280;47393;38.758;-9.164;2022-08-21T03:48:14;100803.31;;;16.60;82.60
61524;BME280;47393;38.758;-9.164;2022-08-21T03:50:15;100781.78;;;16.64;81.87
61524;BME280;47393;38.758;-9.164;2022-08-21T03:52:16;100779.06;;;16.55;81.82
61524;BME280;47393;38.758;-9.164;2022-08-21T03:54:17;100798.47;;;16.74;81.13
61524;BME280;47393;38.758;-9.164;2022-08-21T03:56:18;100781.88;;;16.80;80.61
61524;BME280;47393;38.758;-9.164;2022-08-21T03:58:22;100772.25;;;16.79;79.88
61524;BME280;47393;38.758;-9.164;2022-08-21T04:00:24;100773.75;;;16.82;79.69
61524;BME280;47393;38.758;-9.164;2022-08-21T04:02:25;100790.91;;;16.87;80.16
61524;BME280;47393;38.758;-9.164;2022-08-21T04:04:27;100773.03;;;16.89;78.42
61524;BME280;47393;38.758;-9.164;2022-08-21T04:06:32;100773.75;;;17.00;78.17
61524;BME280;47393;38.758;-9.164;2022-08-21T04:08:33;100773.44;;;17.03;76.95
61524;BME280;47393;38.758;-9.164;2022-08-21T04:10:36;100781.63;;;17.09;76.95
61524;BME280;47393;38.758;-9.164;2022-08-21T04:12:38;100786.63;;;17.12;76.45
61524;BME280;47393;38.758;-9.164;2022-08-21T04:14:38;100775.28;;;17.02;76.59
61524;BME280;47393;38.758;-9.164;2022-08-21T04:16:40;100787.75;;;17.10;76.59
61524;BME280;47393;38.758;-9.164;2022-08-21T04:18:48;100773.59;;;17.01;76.42
61524;BME280;47393;38.758;-9.164;2022-08-21T04:20:50;100787.75;;;17.10;76.61
61524;BME280;47393;38.758;-9.164;2022-08-21T04:22:52;100783.41;;;17.01;77.13
61524;BME280;47393;38.758;-9.164;2022-08-21T04:24:53;100793.44;;;17.15;77.38
61524;BME280;47393;38.758;-9.164;2022-08-21T04:26:54;100779.41;;;17.05;77.83
61524;BME280;47393;38.758;-9.164;2022-08-21T04:28:54;100789.22;;;17.04;78.65
61524;BME280;47393;38.758;-9.164;2022-08-21T04:30:56;100777.56;;;16.97;79.03
61524;BME280;47393;38.758;-9.164;2022-08-21T04:32:57;100792.03;;;17.03;79.25
61524;BME280;47393;38.758;-9.164;2022-08-21T04:35:00;100793.56;;;17.05;79.21
61524;BME280;47393;38.758;-9.164;2022-08-21T04:37:01;100768.06;;;16.94;79.29
61524;BME280;47393;38.758;-9.164;2022-08-21T04:39:02;100789.38;;;17.03;79.52
61524;BME280;47393;38.758;-9.164;2022-08-21T04:41:03;100778.09;;;17.01;79.96
61524;BME280;47393;38.758;-9.164;2022-08-21T04:43:08;100785.06;;;17.02;80.45
61524;BME280;47393;38.758;-9.164;2022-08-21T04:45:09;100762.47;;;16.80;80.94
61524;BME280;47393;38.758;-9.164;2022-08-21T04:47:09;100771.03;;;16.73;81.71
61524;BME280;47393;38.758;-9.164;2022-08-21T04:49:10;100780.44;;;16.86;81.97
61524;BME280;47393;38.758;-9.164;2022-08-21T04:51:19;100777.94;;;16.84;82.77
61524;BME280;47393;38.758;-9.164;2022-08-21T04:53:33;100785.53;;;16.79;83.05
61524;BME280;47393;38.758;-9.164;2022-08-21T04:55:35;100787.91;;;16.82;83.36
61524;BME280;47393;38.758;-9.164;2022-08-21T04:57:37;100772.31;;;16.61;83.84
61524;BME280;47393;38.758;-9.164;2022-08-21T04:59:43;100779.13;;;16.64;83.81
61524;BME280;47393;38.758;-9.164;2022-08-21T05:01:45;100793.38;;;16.63;83.94
61524;BME280;47393;38.758;-9.164;2022-08-21T05:03:48;100790.09;;;16.69;84.08
61524;BME280;47393;38.758;-9.164;2022-08-21T05:05:51;100782.59;;;16.64;83.53
61524;BME280;47393;38.758;-9.164;2022-08-21T05:07:53;100788.91;;;16.63;83.48
61524;BME280;47393;38.758;-9.164;2022-08-21T05:09:54;100793.06;;;16.66;83.68
61524;BME280;47393;38.758;-9.164;2022-08-21T05:11:55;100781.72;;;16.55;83.68
61524;BME280;47393;38.758;-9.164;2022-08-21T05:13:59;100798.53;;;16.64;83.39
61524;BME280;47393;38.758;-9.164;2022-08-21T05:16:00;100775.94;;;16.60;83.09
61524;BME280;47393;38.758;-9.164;2022-08-21T05:18:01;100791.78;;;16.70;82.96
61524;BME280;47393;38.758;-9.164;2022-08-21T05:20:02;100790.81;;;16.71;82.97
61524;BME280;47393;38.758;-9.164;2022-08-21T05:22:03;100793.78;;;16.68;82.92
61524;BME280;47393;38.758;-9.164;2022-08-21T05:24:04;100786.41;;;16.61;83.27
61524;BME280;47393;38.758;-9.164;2022-08-21T05:26:04;100787.59;;;16.67;83.11
61524;BME280;47393;38.758;-9.164;2022-08-21T05:28:06;100780.50;;;16.68;82.97
61524;BME280;47393;38.758;-9.164;2022-08-21T05:30:09;100768.50;;;16.64;83.29
61524;BME280;47393;38.758;-9.164;2022-08-21T05:32:12;100773.81;;;16.64;83.18
61524;BME280;47393;38.758;-9.164;2022-08-21T05:34:14;100789.06;;;16.61;83.54
61524;BME280;47393;38.758;-9.164;2022-08-21T05:36:17;100787.09;;;16.64;83.68
61524;BME280;47393;38.758;-9.164;2022-08-21T05:38:18;100777.78;;;16.41;84.12
61524;BME280;47393;38.758;-9.164;2022-08-21T05:40:19;100783.81;;;16.70;82.79
61524;BME280;47393;38.758;-9.164;2022-08-21T05:42:20;100779.56;;;16.59;82.73
61524;BME280;47393;38.758;-9.164;2022-08-21T05:44:21;100792.56;;;16.62;82.12
61524;BME280;47393;38.758;-9.164;2022-08-21T05:46:21;100774.56;;;16.56;82.03
61524;BME280;47393;38.758;-9.164;2022-08-21T05:48:24;100804.59;;;16.74;81.61
61524;BME280;47393;38.758;-9.164;2022-08-21T05:50:25;100811.72;;;16.92;80.92
61524;BME280;47393;38.758;-9.164;2022-08-21T05:52:26;100809.16;;;16.82;80.76
61524;BME280;47393;38.758;-9.164;2022-08-21T05:54:27;100806.28;;;16.75;81.41
61524;BME280;47393;38.758;-9.164;2022-08-21T05:56:28;100813.19;;;16.68;81.77
61524;BME280;47393;38.758;-9.164;2022-08-21T05:58:30;100824.56;;;16.78;81.83
61524;BME280;47393;38.758;-9.164;2022-08-21T06:00:32;100809.09;;;16.74;81.50
61524;BME280;47393;38.758;-9.164;2022-08-21T06:02:35;100821.53;;;16.91;81.06
61524;BME280;47393;38.758;-9.164;2022-08-21T06:04:39;100803.22;;;17.15;79.89
61524;BME280;47393;38.758;-9.164;2022-08-21T06:06:40;100821.63;;;17.69;77.39
61524;BME280;47393;38.758;-9.164;2022-08-21T06:08:41;100820.50;;;17.88;76.30
61524;BME280;47393;38.758;-9.164;2022-08-21T06:10:43;100817.44;;;18.09;74.97
61524;BME280;47393;38.758;-9.164;2022-08-21T06:12:44;100822.16;;;18.31;73.70
61524;BME280;47393;38.758;-9.164;2022-08-21T06:14:45;100796.69;;;18.37;72.78
61524;BME280;47393;38.758;-9.164;2022-08-21T06:16:45;100824.84;;;18.97;70.57
61524;BME280;47393;38.758;-9.164;2022-08-21T06:18:46;100818.09;;;19.26;69.15
61524;BME280;47393;38.758;-9.164;2022-08-21T06:20:47;100811.09;;;19.25;68.40
61524;BME280;47393;38.758;-9.164;2022-08-21T06:22:47;100841.50;;;20.03;66.34
61524;BME280;47393;38.758;-9.164;2022-08-21T06:24:48;100840.81;;;20.33;63.87
61524;BME280;47393;38.758;-9.164;2022-08-21T06:26:49;100839.81;;;20.57;63.57
61524;BME280;47393;38.758;-9.164;2022-08-21T06:28:50;100831.25;;;20.38;63.55
61524;BME280;47393;38.758;-9.164;2022-08-21T06:30:51;100840.13;;;20.39;63.21
61524;BME280;47393;38.758;-9.164;2022-08-21T06:32:52;100847.94;;;20.17;64.35
61524;BME280;47393;38.758;-9.164;2022-08-21T06:34:53;100822.56;;;20.68;62.73
61524;BME280;47393;38.758;-9.164;2022-08-21T06:36:54;100823.06;;;21.01;60.90
61524;BME280;47393;38.758;-9.164;2022-08-21T06:38:55;100833.81;;;21.61;59.39
61524;BME280;47393;38.758;-9.164;2022-08-21T06:40:56;100831.34;;;21.96;58.00
61524;BME280;47393;38.758;-9.164;2022-08-21T06:43:10;100852.34;;;22.51;56.68
61524;BME280;47393;38.758;-9.164;2022-08-21T06:45:11;100833.31;;;22.24;55.92
61524;BME280;47393;38.758;-9.164;2022-08-21T06:47:11;100843.97;;;22.60;55.58
61524;BME280;47393;38.758;-9.164;2022-08-21T06:49:12;100835.63;;;22.98;53.66
61524;BME280;47393;38.758;-9.164;2022-08-21T06:51:13;100845.38;;;23.06;54.12
61524;BME280;47393;38.758;-9.164;2022-08-21T06:53:17;100847.44;;;23.04;54.24
61524;BME280;47393;38.758;-9.164;2022-08-21T06:55:18;100843.31;;;23.30;53.04
61524;BME280;47393;38.758;-9.164;2022-08-21T06:57:19;100834.13;;;24.01;51.09
61524;BME280;47393;38.758;-9.164;2022-08-21T06:59:20;100832.72;;;24.12;50.41
61524;BME280;47393;38.758;-9.164;2022-08-21T07:01:23;100846.88;;;24.87;48.39
61524;BME280;47393;38.758;-9.164;2022-08-21T07:03:35;100852.19;;;24.54;48.73
61524;BME280;47393;38.758;-9.164;2022-08-21T07:05:36;100848.97;;;23.97;50.29
61524;BME280;47393;38.758;-9.164;2022-08-21T07:07:37;100837.19;;;23.43;51.75
61524;BME280;47393;38.758;-9.164;2022-08-21T07:09:37;100846.94;;;23.99;50.90
61524;BME280;47393;38.758;-9.164;2022-08-21T07:11:38;100845.78;;;24.35;49.00
61524;BME280;47393;38.758;-9.164;2022-08-21T07:13:42;100860.53;;;24.79;48.09
61524;BME280;47393;38.758;-9.164;2022-08-21T07:15:43;100856.97;;;25.26;46.55
61524;BME280;47393;38.758;-9.164;2022-08-21T07:17:44;100840.41;;;24.48;48.14
61524;BME280;47393;38.758;-9.164;2022-08-21T07:19:44;100851.50;;;23.63;50.67
61524;BME280;47393;38.758;-9.164;2022-08-21T07:21:46;100855.09;;;24.52;48.54
61524;BME280;47393;38.758;-9.164;2022-08-21T07:23:49;100862.75;;;25.36;46.12
61524;BME280;47393;38.758;-9.164;2022-08-21T07:25:50;100856.78;;;25.34;45.43
61524;BME280;47393;38.758;-9.164;2022-08-21T07:27:52;100846.22;;;24.59;46.10
61524;BME280;47393;38.758;-9.164;2022-08-21T07:29:55;100840.22;;;25.10;44.72
61524;BME280;47393;38.758;-9.164;2022-08-21T07:31:56;100814.28;;;25.43;43.54
61524;BME280;47393;38.758;-9.164;2022-08-21T07:33:57;100845.94;;;25.61;43.60
61524;BME280;47393;38.758;-9.164;2022-08-21T07:35:58;100840.34;;;25.49;43.51
61524;BME280;47393;38.758;-9.164;2022-08-21T07:37:59;100850.47;;;26.12;41.89
61524;BME280;47393;38.758;-9.164;2022-08-21T07:40:00;100843.22;;;26.76;40.50
61524;BME280;47393;38.758;-9.164;2022-08-21T07:42:01;100835.16;;;26.06;40.05
61524;BME280;47393;38.758;-9.164;2022-08-21T07:44:02;100830.72;;;26.25;40.42
61524;BME280;47393;38.758;-9.164;2022-08-21T07:46:02;100852.28;;;25.73;42.01
61524;BME280;47393;38.758;-9.164;2022-08-21T07:48:04;100827.16;;;25.34;41.80
61524;BME280;47393;38.758;-9.164;2022-08-21T07:50:06;100835.88;;;25.09;43.04
61524;BME280;47393;38.758;-9.164;2022-08-21T07:52:10;100848.50;;;26.26;40.98
61524;BME280;47393;38.758;-9.164;2022-08-21T07:54:11;100847.47;;;24.90;43.24
61524;BME280;47393;38.758;-9.164;2022-08-21T07:56:11;100859.25;;;25.87;40.81
61524;BME280;47393;38.758;-9.164;2022-08-21T07:58:12;100849.06;;;25.51;41.87
61524;BME280;47393;38.758;-9.164;2022-08-21T08:00:16;100853.13;;;26.19;40.10
61524;BME280;47393;38.758;-9.164;2022-08-21T08:02:25;100855.34;;;26.29;38.99
61524;BME280;47393;38.758;-9.164;2022-08-21T08:04:26;100850.09;;;26.66;39.10
61524;BME280;47393;38.758;-9.164;2022-08-21T08:06:27;100843.44;;;26.93;38.38
61524;BME280;47393;38.758;-9.164;2022-08-21T08:08:31;100841.13;;;27.59;36.70
61524;BME280;47393;38.758;-9.164;2022-08-21T08:10:32;100847.69;;;27.26;37.60
61524;BME280;47393;38.758;-9.164;2022-08-21T08:12:38;100845.25;;;26.17;39.77
61524;BME280;47393;38.758;-9.164;2022-08-21T08:14:42;100846.31;;;26.73;39.37
61524;BME280;47393;38.758;-9.164;2022-08-21T08:16:43;100841.56;;;27.38;37.72
61524;BME280;47393;38.758;-9.164;2022-08-21T08:18:44;100837.22;;;26.68;39.12
61524;BME280;47393;38.758;-9.164;2022-08-21T08:20:45;100853.50;;;26.54;39.13
61524;BME280;47393;38.758;-9.164;2022-08-21T08:22:45;100854.25;;;27.56;37.70
61524;BME280;47393;38.758;-9.164;2022-08-21T08:24:46;100856.41;;;27.84;35.79
61524;BME280;47393;38.758;-9.164;2022-08-21T08:26:47;100847.53;;;27.95;35.38
61524;BME280;47393;38.758;-9.164;2022-08-21T08:28:48;100860.31;;;29.56;33.54
61524;BME280;47393;38.758;-9.164;2022-08-21T08:30:49;100854.66;;;30.27;31.68
61524;BME280;47393;38.758;-9.164;2022-08-21T08:32:50;100863.50;;;29.52;33.02
61524;BME280;47393;38.758;-9.164;2022-08-21T08:34:51;100845.00;;;27.82;35.99
61524;BME280;47393;38.758;-9.164;2022-08-21T08:36:52;100854.59;;;28.69;34.75
61524;BME280;47393;38.758;-9.164;2022-08-21T08:38:55;100862.75;;;28.51;34.91
61524;BME280;47393;38.758;-9.164;2022-08-21T08:41:14;100853.78;;;28.92;34.50
61524;BME280;47393;38.758;-9.164;2022-08-21T08:43:15;100872.22;;;30.24;31.92
61524;BME280;47393;38.758;-9.164;2022-08-21T08:45:21;100860.59;;;30.12;32.20
61524;BME280;47393;38.758;-9.164;2022-08-21T08:47:34;100864.06;;;30.87;30.94
61524;BME280;47393;38.758;-9.164;2022-08-21T08:50:05;100875.41;;;31.18;30.89
61524;BME280;47393;38.758;-9.164;2022-08-21T08:52:19;100873.94;;;29.73;32.15
61524;BME280;47393;38.758;-9.164;2022-08-21T08:54:29;100876.44;;;29.86;32.44
61524;BME280;47393;38.758;-9.164;2022-08-21T08:56:33;100878.78;;;30.91;30.94
61524;BME280;47393;38.758;-9.164;2022-08-21T08:58:39;100879.38;;;31.10;30.04
61524;BME280;47393;38.758;-9.164;2022-08-21T09:00:47;100892.13;;;30.30;30.84
61524;BME280;47393;38.758;-9.164;2022-08-21T09:02:52;100875.09;;;29.89;31.39
61524;BME280;47393;38.758;-9.164;2022-08-21T09:04:54;100892.63;;;30.73;30.05
61524;BME280;47393;38.758;-9.164;2022-08-21T09:14:54;100895.31;;;29.57;31.63
61524;BME280;47393;38.758;-9.164;2022-08-21T09:22:15;100907.25;;;29.97;32.14
61524;BME280;47393;38.758;-9.164;2022-08-21T09:24:31;100910.72;;;31.18;30.12
61524;BME280;47393;38.758;-9.164;2022-08-21T09:26:57;100903.41;;;31.01;29.96
61524;BME280;47393;38.758;-9.164;2022-08-21T09:29:02;100897.38;;;31.55;29.19
61524;BME280;47393;38.758;-9.164;2022-08-21T09:31:07;100888.00;;;30.56;30.29
61524;BME280;47393;38.758;-9.164;2022-08-21T09:33:11;100883.25;;;29.77;31.50
61524;BME280;47393;38.758;-9.164;2022-08-21T09:35:18;100887.41;;;30.08;31.33
61524;BME280;47393;38.758;-9.164;2022-08-21T09:37:19;100883.31;;;30.68;30.54
61524;BME280;47393;38.758;-9.164;2022-08-21T09:39:26;100895.75;;;29.78;32.00
61524;BME280;47393;38.758;-9.164;2022-08-21T09:41:31;100907.50;;;30.24;31.45
61524;BME280;47393;38.758;-9.164;2022-08-21T09:43:34;100908.56;;;30.23;30.91
61524;BME280;47393;38.758;-9.164;2022-08-21T09:45:36;100891.22;;;30.87;30.18
61524;BME280;47393;38.758;-9.164;2022-08-21T09:47:37;100905.72;;;31.93;28.73
61524;BME280;47393;38.758;-9.164;2022-08-21T09:49:40;100909.81;;;32.45;27.63
61524;BME280;47393;38.758;-9.164;2022-08-21T09:51:50;100898.50;;;32.04;28.21
61524;BME280;47393;38.758;-9.164;2022-08-21T09:54:16;100919.06;;;33.09;26.99
61524;BME280;47393;38.758;-9.164;2022-08-21T09:58:48;100923.00;;;33.76;26.37
61524;BME280;47393;38.758;-9.164;2022-08-21T10:00:57;100916.19;;;33.26;26.51
61524;BME280;47393;38.758;-9.164;2022-08-21T10:03:11;100923.59;;;32.93;25.99
61524;BME280;47393;38.758;-9.164;2022-08-21T10:05:17;100924.28;;;33.16;25.77
61524;BME280;47393;38.758;-9.164;2022-08-21T10:07:23;100905.34;;;33.41;25.42
61524;BME280;47393;38.758;-9.164;2022-08-21T10:09:24;100923.13;;;33.54;25.50
61524;BME280;47393;38.758;-9.164;2022-08-21T10:11:28;100911.94;;;34.19;25.07
61524;BME280;47393;38.758;-9.164;2022-08-21T10:16:17;100916.03;;;33.05;26.40
61524;BME280;47393;38.758;-9.164;2022-08-21T10:18:43;100910.88;;;31.67;28.50
61524;BME280;47393;38.758;-9.164;2022-08-21T10:20:52;100908.69;;;31.91;27.17
61524;BME280;47393;38.758;-9.164;2022-08-21T10:23:20;100929.47;;;32.25;27.01
61524;BME280;47393;38.758;-9.164;2022-08-21T10:29:57;100931.59;;;30.20;28.97
61524;BME280;47393;38.758;-9.164;2022-08-21T10:45:54;100901.72;;;32.23;25.97
61524;BME280;47393;38.758;-9.164;2022-08-21T10:48:04;100908.19;;;31.95;27.05
61524;BME280;47393;38.758;-9.164;2022-08-21T10:50:42;100915.50;;;31.50;27.92
61524;BME280;47393;38.758;-9.164;2022-08-21T10:53:09;100907.41;;;32.81;25.86
61524;BME280;47393;38.758;-9.164;2022-08-21T10:55:21;100903.44;;;32.62;25.14
61524;BME280;47393;38.758;-9.164;2022-08-21T10:57:38;100898.66;;;32.47;26.21
61524;BME280;47393;38.758;-9.164;2022-08-21T10:59:48;100895.22;;;32.24;26.20
61524;BME280;47393;38.758;-9.164;2022-08-21T11:01:59;100900.84;;;32.17;26.11
61524;BME280;47393;38.758;-9.164;2022-08-21T11:04:16;100900.84;;;32.45;26.13
61524;BME280;47393;38.758;-9.164;2022-08-21T11:06:24;100879.91;;;32.77;25.99
61524;BME280;47393;38.758;-9.164;2022-08-21T11:08:29;100908.56;;;33.23;25.35
61524;BME280;47393;38.758;-9.164;2022-08-21T11:10:52;100901.38;;;33.11;25.16
61524;BME280;47393;38.758;-9.164;2022-08-21T11:12:58;100898.94;;;33.63;24.31
61524;BME280;47393;38.758;-9.164;2022-08-21T11:17:45;100870.44;;;34.02;24.43